Time;durP1;ratioP1;P1;durP2;ratioP2;P2;SDS_P1;SDS_P2;PMS_P1;PMS_P2;Temp;Humidity;BMP_temperature;BMP_pressure;BME280_temperature;BME280_humidity;BME280_pressure;Samples;Min_cycle;Max_cycle;Signal;HPM_P1;HPM_P2
2022/03/07 00:01:53;;;;;;;2.90;0.50;;;;;;;3.64;100.00;102945.72;5073575;28;20048;-27
2022/03/07 00:04:22;;;;;;;1.90;0.60;;;;;;;3.61;100.00;102948.91;5073801;28;20123;-30
2022/03/07 00:06:50;;;;;;;1.52;0.40;;;;;;;3.57;100.00;102950.38;5072715;28;20057;-28
2022/03/07 00:09:17;;;;;;;2.40;0.43;;;;;;;3.55;100.00;102951.63;5072816;28;20045;-25
2022/03/07 00:11:45;;;;;;;1.77;0.35;;;;;;;3.50;100.00;102952.22;5072971;28;20044;-26
2022/03/07 00:14:13;;;;;;;2.90;0.70;;;;;;;3.47;100.00;102941.59;5072114;28;20045;-27
2022/03/07 00:16:42;;;;;;;4.07;0.47;;;;;;;3.45;100.00;102954.72;5073435;28;20060;-30
2022/03/07 00:19:10;;;;;;;4.20;0.52;;;;;;;3.42;100.00;102952.38;5073154;28;20040;-29
2022/03/07 00:21:38;;;;;;;4.60;0.68;;;;;;;3.38;100.00;102951.94;5072594;28;20045;-29
2022/03/07 00:24:07;;;;;;;3.10;0.63;;;;;;;3.36;100.00;102953.19;5073248;28;20119;-27
2022/03/07 00:26:36;;;;;;;3.75;0.60;;;;;;;3.33;100.00;102950.81;5073238;28;20044;-29
2022/03/07 00:29:04;;;;;;;2.10;0.50;;;;;;;3.29;100.00;102952.28;5072227;28;20136;-28
2022/03/07 00:31:32;;;;;;;3.17;0.60;;;;;;;3.25;100.00;102959.22;5073021;28;20448;-28
2022/03/07 00:34:01;;;;;;;3.22;0.60;;;;;;;3.21;100.00;102956.00;5072420;28;20398;-27
2022/03/07 00:36:29;;;;;;;4.03;0.70;;;;;;;3.18;100.00;102961.09;5071556;28;20052;-30
2022/03/07 00:38:58;;;;;;;1.75;0.50;;;;;;;3.13;100.00;102958.94;5073121;28;20055;-27
2022/03/07 00:41:26;;;;;;;5.30;1.30;;;;;;;3.09;100.00;102963.13;5072156;28;20429;-30
2022/03/07 00:43:53;;;;;;;3.22;0.85;;;;;;;3.03;100.00;102956.50;5071500;28;20040;-29
2022/03/07 00:46:21;;;;;;;3.58;1.05;;;;;;;2.98;100.00;102960.91;5071723;28;20118;-29
2022/03/07 00:48:49;;;;;;;3.90;1.20;;;;;;;2.93;100.00;102953.22;5070792;28;20048;-28
2022/03/07 00:51:18;;;;;;;3.47;1.08;;;;;;;2.89;100.00;102965.69;5072685;28;20421;-28
2022/03/07 00:53:47;;;;;;;2.47;0.95;;;;;;;2.83;100.00;102963.72;5071642;28;20131;-30
2022/03/07 00:56:15;;;;;;;5.45;1.20;;;;;;;2.77;100.00;102964.53;5069657;28;20044;-29
2022/03/07 00:58:43;;;;;;;2.53;0.85;;;;;;;2.74;100.00;102967.66;5068949;28;20147;-26
2022/03/07 01:01:15;;;;;;;3.08;0.82;;;;;;;2.70;100.00;102966.34;5070805;28;20504;-26
2022/03/07 01:03:43;;;;;;;4.45;1.40;;;;;;;2.66;100.00;102965.03;5069609;28;20058;-28
2022/03/07 01:06:11;;;;;;;3.80;1.55;;;;;;;2.61;100.00;102968.34;5069511;28;20052;-26
2022/03/07 01:08:40;;;;;;;4.93;1.45;;;;;;;2.55;100.00;102976.56;5070184;28;20224;-28
2022/03/07 01:11:08;;;;;;;4.38;1.20;;;;;;;2.49;100.00;102974.56;5069466;28;20545;-28
2022/03/07 01:13:35;;;;;;;6.03;1.45;;;;;;;2.42;100.00;102975.34;5071460;28;20443;-27
2022/03/07 01:16:04;;;;;;;4.47;1.33;;;;;;;2.37;100.00;102979.75;5070714;28;20048;-26
2022/03/07 01:18:31;;;;;;;3.05;0.90;;;;;;;2.31;100.00;102978.59;5072237;28;20033;-33
2022/03/07 01:20:59;;;;;;;3.28;1.02;;;;;;;2.26;100.00;102985.72;5072056;28;20071;-28
2022/03/07 01:23:27;;;;;;;6.97;1.30;;;;;;;2.19;100.00;102976.56;5070742;28;20551;-28
2022/03/07 01:25:56;;;;;;;4.10;1.30;;;;;;;2.13;100.00;102980.91;5072203;28;20055;-29
2022/03/07 01:28:24;;;;;;;2.72;1.00;;;;;;;2.07;100.00;102982.53;5071960;28;20127;-30
2022/03/07 01:30:52;;;;;;;4.20;1.40;;;;;;;2.00;100.00;102978.81;5071274;28;20052;-28
2022/03/07 01:33:22;;;;;;;3.22;1.02;;;;;;;1.92;100.00;102976.19;5071855;28;20048;-30
2022/03/07 01:35:50;;;;;;;4.80;1.27;;;;;;;1.87;100.00;102983.28;5070320;28;20040;-29
2022/03/07 01:38:17;;;;;;;3.08;1.10;;;;;;;1.82;100.00;102972.84;5069823;28;20104;-28
2022/03/07 01:40:45;;;;;;;2.63;1.00;;;;;;;1.76;100.00;102976.38;5072002;28;20067;-29
2022/03/07 01:43:14;;;;;;;3.03;0.90;;;;;;;1.71;100.00;102970.56;5071827;28;20459;-27
2022/03/07 01:45:43;;;;;;;2.83;1.10;;;;;;;1.65;100.00;102966.66;5070840;28;20456;-27
2022/03/07 01:48:12;;;;;;;3.70;1.20;;;;;;;1.61;100.00;102968.09;5071751;28;20048;-29
2022/03/07 01:50:40;;;;;;;3.15;1.02;;;;;;;1.58;100.00;102967.63;5070659;28;20499;-34
2022/03/07 01:53:09;;;;;;;3.50;1.05;;;;;;;1.52;100.00;102969.22;5069787;28;20494;-27
2022/03/07 01:55:37;;;;;;;5.05;1.60;;;;;;;1.48;100.00;102972.53;5070100;28;20078;-28
2022/03/07 01:58:05;;;;;;;9.20;2.33;;;;;;;1.42;100.00;102967.78;5070424;28;20033;-29
2022/03/07 02:00:35;;;;;;;4.70;1.60;;;;;;;1.38;100.00;102961.81;5069289;28;20471;-27
2022/03/07 02:03:03;;;;;;;5.18;1.55;;;;;;;1.34;100.00;102957.72;5069048;28;20135;-29
2022/03/07 02:05:42;;;;;;;3.83;1.58;;;;;;;1.29;100.00;102960.16;5069697;28;20048;-28
2022/03/07 02:08:17;;;;;;;5.10;1.50;;;;;;;1.24;100.00;102954.38;5069796;28;20072;-29
2022/03/07 02:10:51;;;;;;;7.85;1.88;;;;;;;1.21;100.00;102954.72;5070072;28;20489;-28
2022/03/07 02:13:20;;;;;;;4.93;1.50;;;;;;;1.16;100.00;102949.81;5070363;28;20521;-29
2022/03/07 02:16:17;;;;;;;3.50;1.30;;;;;;;1.12;100.00;102950.38;5069929;28;20459;-29
2022/03/07 02:18:45;;;;;;;4.43;1.50;;;;;;;1.07;100.00;102942.66;5068274;28;20049;-30
2022/03/07 02:21:22;;;;;;;3.95;1.42;;;;;;;1.04;100.00;102952.13;5068911;28;20131;-26
2022/03/07 02:24:03;;;;;;;4.50;1.30;;;;;;;1.02;100.00;102945.09;5067674;28;20064;-30
2022/03/07 02:26:32;;;;;;;4.30;1.27;;;;;;;0.97;100.00;102945.69;5069212;28;20056;-29
2022/03/07 02:29:00;;;;;;;7.45;2.58;;;;;;;0.93;100.00;102947.09;5070233;28;20044;-29
2022/03/07 02:31:31;;;;;;;5.70;2.20;;;;;;;0.91;100.00;102949.16;5069969;28;20446;-27
2022/03/07 02:34:02;;;;;;;5.90;2.03;;;;;;;0.90;100.00;102944.69;5068826;28;20045;-28
2022/03/07 02:36:30;;;;;;;5.38;1.73;;;;;;;0.87;100.00;102941.47;5071943;28;20052;-27
2022/03/07 02:39:01;;;;;;;5.53;2.20;;;;;;;0.83;100.00;102940.13;5073906;28;20080;-30
2022/03/07 02:41:29;;;;;;;5.57;1.50;;;;;;;0.79;100.00;102947.91;5074478;28;20059;-31
2022/03/07 02:43:57;;;;;;;4.57;1.60;;;;;;;0.75;100.00;102943.81;5073862;28;20048;-28
2022/03/07 02:46:25;;;;;;;4.63;1.70;;;;;;;0.69;100.00;102942.63;5075181;28;20056;-30
2022/03/07 02:48:53;;;;;;;6.85;1.92;;;;;;;0.65;100.00;102948.66;5072782;28;20728;-28
2022/03/07 02:51:21;;;;;;;6.88;1.90;;;;;;;0.61;100.00;102941.81;5073750;28;20052;-28
2022/03/07 02:53:49;;;;;;;6.22;1.75;;;;;;;0.57;100.00;102937.75;5075087;28;20046;-31
2022/03/07 02:56:18;;;;;;;5.28;1.70;;;;;;;0.53;100.00;102934.50;5074288;28;20036;-27
2022/03/07 02:58:46;;;;;;;4.03;1.40;;;;;;;0.51;100.00;102938.47;5074820;28;20436;-29
2022/03/07 03:01:14;;;;;;;3.58;1.33;;;;;;;0.46;100.00;102933.50;5074596;28;20040;-27
2022/03/07 03:03:42;;;;;;;3.85;1.33;;;;;;;0.42;100.00;102932.16;5073981;28;20048;-31
2022/03/07 03:06:10;;;;;;;3.30;1.30;;;;;;;0.38;100.00;102930.84;5074854;28;20044;-28
2022/03/07 03:08:38;;;;;;;3.53;1.38;;;;;;;0.37;100.00;102933.75;5073945;28;20060;-30
2022/03/07 03:11:05;;;;;;;5.18;1.77;;;;;;;0.33;100.00;102928.63;5074716;28;20048;-29
2022/03/07 03:13:35;;;;;;;4.10;1.50;;;;;;;0.30;100.00;102933.63;5074540;28;20542;-28
2022/03/07 03:16:03;;;;;;;6.47;1.60;;;;;;;0.28;100.00;102927.44;5073834;28;20044;-29
2022/03/07 03:18:30;;;;;;;3.83;1.33;;;;;;;0.25;100.00;102931.41;5073983;28;20116;-27
2022/03/07 03:20:59;;;;;;;3.40;1.20;;;;;;;0.23;100.00;102932.63;5074586;28;20074;-31
2022/03/07 03:23:26;;;;;;;4.05;1.35;;;;;;;0.21;100.00;102935.53;5073319;28;20103;-30
2022/03/07 03:25:55;;;;;;;8.52;2.85;;;;;;;0.19;100.00;102937.66;5074566;28;20052;-29
2022/03/07 03:28:23;;;;;;;6.78;1.95;;;;;;;0.16;100.00;102927.03;5074098;28;20490;-29
2022/03/07 03:30:53;;;;;;;6.00;2.22;;;;;;;0.11;100.00;102929.44;5073653;28;20098;-29
2022/03/07 03:33:21;;;;;;;5.35;1.63;;;;;;;0.08;100.00;102920.69;5074601;28;20041;-27
2022/03/07 03:35:49;;;;;;;6.00;2.08;;;;;;;0.05;100.00;102927.41;5074146;28;20049;-30
2022/03/07 03:38:17;;;;;;;7.43;2.60;;;;;;;0.00;100.00;102927.09;5073361;28;20068;-27
2022/03/07 03:40:45;;;;;;;5.20;1.80;;;;;;;-0.02;100.00;102937.41;5073980;28;20516;-27
2022/03/07 03:43:12;;;;;;;6.03;2.00;;;;;;;-0.05;100.00;102924.91;5074181;28;20044;-30
2022/03/07 03:45:40;;;;;;;6.35;1.90;;;;;;;-0.05;100.00;102922.16;5073525;28;20045;-29
2022/03/07 03:48:09;;;;;;;9.18;2.30;;;;;;;-0.07;100.00;102923.34;5073867;28;20040;-29
2022/03/07 03:50:37;;;;;;;3.40;1.30;;;;;;;-0.10;100.00;102915.47;5073948;28;20140;-29
2022/03/07 03:53:05;;;;;;;4.82;1.92;;;;;;;-0.13;100.00;102915.81;5072965;28;20044;-32
2022/03/07 03:55:33;;;;;;;4.03;1.45;;;;;;;-0.16;100.00;102922.53;5073892;28;20496;-28
2022/03/07 03:58:03;;;;;;;4.65;1.80;;;;;;;-0.20;100.00;102914.84;5073255;28;20163;-29
2022/03/07 04:00:31;;;;;;;4.18;1.42;;;;;;;-0.23;100.00;102910.56;5073800;28;20048;-31
2022/03/07 04:02:59;;;;;;;5.38;1.63;;;;;;;-0.24;100.00;102916.22;5073866;28;20448;-30
2022/03/07 04:05:28;;;;;;;3.17;1.10;;;;;;;-0.26;100.00;102918.28;5072884;28;20056;-30
2022/03/07 04:07:56;;;;;;;3.72;1.30;;;;;;;-0.28;100.00;102918.47;5073599;28;20058;-34
2022/03/07 04:10:24;;;;;;;5.40;2.10;;;;;;;-0.30;100.00;102911.44;5073666;28;20041;-29
2022/03/07 04:12:52;;;;;;;4.45;1.35;;;;;;;-0.32;100.00;102917.09;5073321;28;20130;-28
2022/03/07 04:15:20;;;;;;;5.00;1.38;;;;;;;-0.33;100.00;102920.03;5073334;28;20040;-30
2022/03/07 04:17:49;;;;;;;3.72;1.23;;;;;;;-0.35;100.00;102917.44;5073672;28;20090;-30
2022/03/07 04:20:17;;;;;;;2.22;0.75;;;;;;;-0.37;100.00;102908.53;5072128;28;20135;-31
2022/03/07 04:22:47;;;;;;;4.05;0.98;;;;;;;-0.39;100.00;102911.47;5073556;28;20386;-26
2022/03/07 04:25:16;;;;;;;2.80;0.80;;;;;;;-0.42;100.00;102911.84;5073131;28;20127;-26
2022/03/07 04:27:43;;;;;;;3.45;1.00;;;;;;;-0.44;100.00;102911.16;5072370;28;20048;-25
2022/03/07 04:30:11;;;;;;;2.58;0.88;;;;;;;-0.46;100.00;102913.22;5073175;28;20413;-29
2022/03/07 04:32:40;;;;;;;4.03;1.35;;;;;;;-0.49;100.00;102910.81;5071166;28;20409;-34
2022/03/07 04:35:10;;;;;;;3.10;0.82;;;;;;;-0.51;100.00;102907.41;5070598;28;20044;-27
2022/03/07 04:37:40;;;;;;;3.10;1.08;;;;;;;-0.52;100.00;102911.16;5071449;28;20056;-29
2022/03/07 04:40:11;;;;;;;3.17;0.82;;;;;;;-0.53;100.00;102909.47;5071193;28;20476;-28
2022/03/07 04:42:40;;;;;;;3.35;1.00;;;;;;;-0.56;100.00;102919.91;5071865;28;20044;-29
2022/03/07 04:45:09;;;;;;;3.60;0.90;;;;;;;-0.58;100.00;102922.81;5071763;28;20048;-27
2022/03/07 04:47:36;;;;;;;3.65;0.90;;;;;;;-0.58;100.00;102930.19;5071660;28;20049;-27
2022/03/07 04:50:05;;;;;;;4.82;1.23;;;;;;;-0.60;100.00;102935.84;5072905;28;20055;-26
2022/03/07 04:52:34;;;;;;;2.28;0.88;;;;;;;-0.64;100.00;102940.00;5072773;28;20143;-28
2022/03/07 04:55:02;;;;;;;4.78;1.08;;;;;;;-0.66;100.00;102936.56;5071885;28;20040;-26
2022/03/07 04:57:31;;;;;;;1.77;0.60;;;;;;;-0.67;100.00;102945.81;5072587;28;20071;-28
2022/03/07 04:59:59;;;;;;;3.47;0.88;;;;;;;-0.70;100.00;102944.28;5071712;28;20055;-27
2022/03/07 05:02:26;;;;;;;3.40;1.00;;;;;;;-0.71;100.00;102936.22;5071706;28;20051;-27
2022/03/07 05:04:54;;;;;;;3.55;0.90;;;;;;;-0.72;100.00;102940.00;5072364;28;20052;-31
2022/03/07 05:07:22;;;;;;;2.90;0.82;;;;;;;-0.73;100.00;102941.88;5072545;28;20060;-29
2022/03/07 05:09:50;;;;;;;2.35;0.60;;;;;;;-0.72;100.00;102940.00;5072154;28;20047;-29
2022/03/07 05:12:17;;;;;;;2.58;0.60;;;;;;;-0.74;100.00;102944.78;5071941;28;20123;-28
2022/03/07 05:14:47;;;;;;;1.98;0.70;;;;;;;-0.77;100.00;102942.41;5072503;28;20486;-29
2022/03/07 05:17:14;;;;;;;4.95;0.70;;;;;;;-0.77;100.00;102939.66;5070136;28;20058;-27
2022/03/07 05:19:43;;;;;;;3.25;0.68;;;;;;;-0.79;100.00;102938.97;5072426;28;20047;-29
2022/03/07 05:22:11;;;;;;;2.15;0.80;;;;;;;-0.83;100.00;102946.72;5071810;28;20044;-28
2022/03/07 05:24:38;;;;;;;3.10;1.02;;;;;;;-0.84;100.00;102944.13;5071051;28;20048;-28
2022/03/07 05:27:08;;;;;;;2.30;0.60;;;;;;;-0.86;100.00;102944.31;5069988;28;20053;-30
2022/03/07 05:29:37;;;;;;;4.80;2.08;;;;;;;-0.88;100.00;102942.78;5069859;28;20062;-31
2022/03/07 05:32:07;;;;;;;3.35;1.00;;;;;;;-0.91;100.00;102949.44;5070537;28;20143;-29
2022/03/07 05:34:35;;;;;;;3.15;0.85;;;;;;;-0.93;100.00;102950.66;5070524;28;20048;-34
2022/03/07 05:37:03;;;;;;;3.50;1.30;;;;;;;-0.96;100.00;102953.72;5069185;28;20041;-29
2022/03/07 05:39:31;;;;;;;2.60;0.93;;;;;;;-0.97;100.00;102954.75;5070306;28;20071;-29
2022/03/07 05:41:59;;;;;;;3.00;1.00;;;;;;;-0.97;100.00;102954.75;5069007;28;20051;-28
2022/03/07 05:44:26;;;;;;;3.47;1.00;;;;;;;-1.00;100.00;102955.13;5069637;28;20051;-29
2022/03/07 05:46:54;;;;;;;1.77;0.70;;;;;;;-1.00;100.00;102966.06;5070481;28;20460;-30
2022/03/07 05:49:23;;;;;;;2.55;0.80;;;;;;;-1.04;100.00;102965.56;5070665;28;20055;-27
2022/03/07 05:51:51;;;;;;;2.58;0.80;;;;;;;-1.05;100.00;102961.97;5069486;28;20052;-27
2022/03/07 05:54:19;;;;;;;2.53;1.00;;;;;;;-1.06;100.00;102963.00;5058996;28;20057;-28
2022/03/07 05:56:46;;;;;;;2.00;0.68;;;;;;;-1.06;100.00;102970.34;5070546;28;20039;-29
2022/03/07 05:59:14;;;;;;;3.33;0.80;;;;;;;-1.06;100.00;102970.34;5069711;28;20489;-28
2022/03/07 06:01:42;;;;;;;4.22;1.00;;;;;;;-1.08;100.00;102976.00;5068495;28;20057;-31
2022/03/07 06:04:10;;;;;;;2.10;1.05;;;;;;;-1.10;100.00;102968.97;5069677;28;20048;-30
2022/03/07 06:06:39;;;;;;;4.43;1.30;;;;;;;-1.11;100.00;102964.53;5066600;28;20433;-28
2022/03/07 06:09:06;;;;;;;3.53;1.40;;;;;;;-1.13;100.00;102963.81;5069533;28;20418;-29
2022/03/07 06:11:34;;;;;;;8.82;3.63;;;;;;;-1.14;100.00;102960.22;5068348;28;20076;-27
2022/03/07 06:14:02;;;;;;;4.55;2.08;;;;;;;-1.12;100.00;102962.81;5069259;28;20489;-29
2022/03/07 06:16:30;;;;;;;5.30;2.10;;;;;;;-1.13;100.00;102966.56;5068734;28;20054;-27
2022/03/07 06:18:57;;;;;;;4.60;1.90;;;;;;;-1.15;100.00;102968.63;5068682;28;20427;-30
2022/03/07 06:21:25;;;;;;;5.03;2.22;;;;;;;-1.17;100.00;102960.56;5069802;28;20139;-26
2022/03/07 06:23:55;;;;;;;4.53;1.60;;;;;;;-1.19;100.00;102965.34;5070617;28;20242;-28
2022/03/07 06:26:23;;;;;;;6.38;2.15;;;;;;;-1.18;100.00;102966.22;5069524;28;20044;-28
2022/03/07 06:28:52;;;;;;;4.20;1.40;;;;;;;-1.11;100.00;102967.25;5069699;28;20121;-29
2022/03/07 06:31:20;;;;;;;2.65;1.00;;;;;;;-1.09;100.00;102965.22;5068402;28;20048;-27
2022/03/07 06:33:47;;;;;;;3.53;1.20;;;;;;;-1.11;100.00;102961.78;5068366;28;20484;-28
2022/03/07 06:36:15;;;;;;;2.13;1.10;;;;;;;-1.11;100.00;102959.03;5069302;28;20044;-30
2022/03/07 06:38:43;;;;;;;2.78;1.00;;;;;;;-1.11;100.00;102965.38;5069300;28;20065;-31
2022/03/07 06:41:12;;;;;;;3.40;0.90;;;;;;;-1.12;100.00;102958.19;5068284;28;20047;-26
2022/03/07 06:43:40;;;;;;;4.20;1.10;;;;;;;-1.11;100.00;102965.38;5069350;28;20105;-27
2022/03/07 06:46:07;;;;;;;3.72;1.00;;;;;;;-1.10;100.00;102963.50;5070129;28;20047;-28
2022/03/07 06:48:36;;;;;;;2.75;0.90;;;;;;;-1.09;100.00;102960.59;5069916;28;20197;-30
2022/03/07 06:51:04;;;;;;;3.47;0.90;;;;;;;-1.06;100.00;102968.47;5070349;28;20516;-29
2022/03/07 06:53:32;;;;;;;2.28;0.85;;;;;;;-1.05;100.00;102964.69;5070601;28;20076;-29
2022/03/07 06:55:59;;;;;;;3.15;0.80;;;;;;;-1.02;100.00;102962.66;5069654;28;20040;-31
2022/03/07 06:58:28;;;;;;;6.25;1.15;;;;;;;-1.02;100.00;102963.50;5070601;28;20044;-28
2022/03/07 07:00:56;;;;;;;2.67;1.00;;;;;;;-0.99;100.00;102967.75;5069410;28;20123;-26
2022/03/07 07:03:24;;;;;;;2.95;1.08;;;;;;;-0.96;100.00;102967.41;5070779;28;20048;-32
2022/03/07 07:05:52;;;;;;;4.05;1.30;;;;;;;-0.93;100.00;102972.56;5069980;28;20139;-31
2022/03/07 07:08:20;;;;;;;3.85;1.30;;;;;;;-0.88;100.00;102970.16;5069723;28;20132;-27
2022/03/07 07:10:47;;;;;;;3.78;1.40;;;;;;;-0.82;100.00;102964.88;5070394;28;20401;-29
2022/03/07 07:13:15;;;;;;;5.50;2.10;;;;;;;-0.61;100.00;102967.06;5069690;28;20181;-29
2022/03/07 07:15:44;;;;;;;5.43;2.35;;;;;;;-0.23;100.00;102975.56;5069480;28;20067;-30
2022/03/07 07:18:12;;;;;;;6.95;2.55;;;;;;;0.27;100.00;102981.50;5070175;28;20090;-28
2022/03/07 07:20:40;;;;;;;8.35;2.60;;;;;;;0.87;100.00;102980.78;5070296;28;20036;-31
2022/03/07 07:23:08;;;;;;;7.35;3.28;;;;;;;1.52;100.00;102971.13;5072361;28;20516;-28
2022/03/07 07:25:35;;;;;;;5.63;2.90;;;;;;;2.20;100.00;102976.34;5073787;28;20055;-26
2022/03/07 07:28:03;;;;;;;7.80;2.72;;;;;;;2.87;100.00;102970.56;5073723;28;20052;-28
2022/03/07 07:30:31;;;;;;;6.78;2.60;;;;;;;3.62;100.00;102977.34;5073072;28;20398;-28
2022/03/07 07:33:00;;;;;;;5.35;2.33;;;;;;;4.35;100.00;102986.94;5073979;28;20165;-28
2022/03/07 07:35:28;;;;;;;5.78;2.20;;;;;;;5.05;100.00;102989.28;5073592;28;20445;-32
2022/03/07 07:37:56;;;;;;;8.02;2.40;;;;;;;5.73;100.00;102980.78;5072867;28;20097;-29
2022/03/07 07:40:24;;;;;;;5.13;2.40;;;;;;;6.39;100.00;102983.41;5073593;28;20069;-28
2022/03/07 07:42:52;;;;;;;4.30;1.88;;;;;;;7.01;100.00;102976.22;5073724;28;20075;-31
2022/03/07 07:45:19;;;;;;;6.20;2.00;;;;;;;7.40;100.00;102988.97;5073222;28;20506;-32
2022/03/07 07:47:47;;;;;;;4.00;1.70;;;;;;;7.69;100.00;102979.97;5073547;28;20040;-33
2022/03/07 07:50:16;;;;;;;5.18;1.80;;;;;;;8.01;97.48;102988.19;5073097;28;20444;-28
2022/03/07 07:52:44;;;;;;;4.50;1.50;;;;;;;8.34;95.15;102985.09;5072698;28;20553;-32
2022/03/07 07:55:12;;;;;;;4.47;1.90;;;;;;;8.73;93.70;102994.84;5073730;28;20044;-33
2022/03/07 07:57:40;;;;;;;3.70;1.73;;;;;;;9.01;88.90;102994.22;5072759;28;20051;-30
2022/03/07 08:00:10;;;;;;;4.85;1.67;;;;;;;9.31;89.01;102998.69;5070665;28;20075;-32
2022/03/07 08:02:45;;;;;;;4.07;1.50;;;;;;;9.72;86.40;102993.31;5073360;28;20139;-32
2022/03/07 08:05:13;;;;;;;3.78;1.55;;;;;;;9.89;84.16;102985.91;5072535;28;20096;-34
2022/03/07 08:07:42;;;;;;;4.90;1.77;;;;;;;10.11;83.01;102992.56;5073360;28;20417;-33
2022/03/07 08:10:11;;;;;;;4.32;1.40;;;;;;;10.15;80.10;102977.06;5073134;28;20041;-30
2022/03/07 08:12:38;;;;;;;6.47;1.73;;;;;;;10.31;80.83;102990.28;5072662;28;20139;-35
2022/03/07 08:15:11;;;;;;;6.22;1.92;;;;;;;10.61;79.73;102995.66;5073338;28;20062;-31
2022/03/07 08:17:41;;;;;;;4.20;2.10;;;;;;;10.74;76.77;102996.47;5073225;28;20408;-35
2022/03/07 08:20:10;;;;;;;4.53;2.17;;;;;;;10.82;75.69;102996.91;5072071;28;20052;-29
2022/03/07 08:22:37;;;;;;;5.15;2.10;;;;;;;10.99;75.49;103000.59;5064956;28;20053;-31
2022/03/07 08:25:08;;;;;;;6.43;2.40;;;;;;;10.98;72.55;102998.09;5072902;28;20072;-33
2022/03/07 08:27:35;;;;;;;4.95;2.10;;;;;;;10.92;73.27;103001.88;5073145;28;20395;-31
2022/03/07 08:30:06;;;;;;;5.00;2.33;;;;;;;10.83;72.23;102997.75;5072936;28;20075;-31
2022/03/07 08:32:34;;;;;;;4.03;2.20;;;;;;;10.65;71.60;103001.59;5071559;28;20061;-36
2022/03/07 08:35:02;;;;;;;6.57;2.70;;;;;;;10.38;72.07;102998.53;5072245;28;20049;-33
2022/03/07 08:37:30;;;;;;;7.30;2.83;;;;;;;10.32;72.82;102991.97;5072661;28;20044;-33
2022/03/07 08:39:58;;;;;;;7.45;2.97;;;;;;;10.41;72.30;102984.06;5072094;28;20052;-32
2022/03/07 08:42:27;;;;;;;4.32;2.50;;;;;;;10.64;71.90;102985.94;5072768;28;20079;-33
2022/03/07 08:44:55;;;;;;;5.75;2.83;;;;;;;10.79;71.44;102988.22;5072429;28;20047;-31
2022/03/07 08:47:22;;;;;;;8.30;3.75;;;;;;;10.85;68.12;102992.78;5071934;28;20047;-34
2022/03/07 08:49:50;;;;;;;7.13;3.38;;;;;;;10.72;68.24;102982.75;5072699;28;20044;-32
2022/03/07 08:52:18;;;;;;;6.20;3.65;;;;;;;10.70;65.81;102987.75;5072671;28;20052;-32
2022/03/07 08:54:47;;;;;;;6.43;3.95;;;;;;;10.52;66.43;102979.56;5070611;28;20059;-30
2022/03/07 08:57:15;;;;;;;8.75;4.47;;;;;;;10.26;66.91;102983.72;5072591;28;20045;-39
2022/03/07 08:59:44;;;;;;;6.30;4.18;;;;;;;10.11;66.85;102988.94;5072189;28;20052;-35
2022/03/07 09:02:12;;;;;;;7.90;4.70;;;;;;;9.98;64.21;102988.09;5068638;28;20044;-31
2022/03/07 09:04:43;;;;;;;7.63;4.25;;;;;;;10.03;66.18;102985.41;5072043;28;20485;-30
2022/03/07 09:07:12;;;;;;;6.65;3.85;;;;;;;10.03;64.87;102981.78;5071142;28;20091;-32
2022/03/07 09:09:40;;;;;;;6.43;3.60;;;;;;;10.02;65.22;102980.94;5071278;28;20109;-31
2022/03/07 09:12:09;;;;;;;7.53;3.42;;;;;;;10.07;63.37;102979.34;5071813;28;20060;-29
2022/03/07 09:14:36;;;;;;;5.47;3.40;;;;;;;10.07;62.54;102969.03;5071295;28;20070;-30
2022/03/07 09:17:06;;;;;;;4.95;3.13;;;;;;;10.14;61.96;102975.34;5072091;28;20072;-31
2022/03/07 09:19:34;;;;;;;5.97;2.97;;;;;;;10.20;61.06;102971.59;5071981;28;20052;-30
2022/03/07 09:22:01;;;;;;;7.03;2.63;;;;;;;10.42;60.56;102969.00;5071037;28;20055;-32
2022/03/07 09:24:29;;;;;;;4.97;2.65;;;;;;;10.75;59.29;102968.31;5071546;28;20061;-33
2022/03/07 09:26:57;;;;;;;5.80;3.00;;;;;;;11.04;58.60;102964.38;5071760;28;20056;-30
2022/03/07 09:29:25;;;;;;;5.90;2.88;;;;;;;11.20;57.48;102973.88;5071210;28;20059;-32
2022/03/07 09:31:52;;;;;;;5.15;3.20;;;;;;;11.23;57.03;102976.19;5071827;28;20412;-33
2022/03/07 09:34:22;;;;;;;5.32;2.80;;;;;;;11.25;57.24;102971.19;5071689;28;20072;-32
2022/03/07 09:36:50;;;;;;;6.95;3.17;;;;;;;11.37;55.77;102969.19;5070604;28;20049;-27
2022/03/07 09:39:17;;;;;;;7.82;3.70;;;;;;;11.65;56.75;102979.44;5071371;28;20658;-31
2022/03/07 09:41:45;;;;;;;5.32;3.38;;;;;;;11.74;55.65;102977.06;5071553;28;20428;-31
2022/03/07 09:44:13;;;;;;;5.38;3.50;;;;;;;12.01;55.32;102966.88;5070436;28;20138;-31
2022/03/07 09:46:41;;;;;;;4.60;3.08;;;;;;;12.15;54.47;102961.78;5071351;28;20055;-31
2022/03/07 09:49:09;;;;;;;5.07;3.15;;;;;;;12.00;50.11;102965.16;5071513;28;20044;-31
2022/03/07 09:51:38;;;;;;;5.10;3.30;;;;;;;11.74;52.63;102965.88;5069990;28;20048;-31
2022/03/07 09:54:07;;;;;;;5.00;3.28;;;;;;;11.52;52.51;102962.16;5071924;28;20127;-31
2022/03/07 09:56:35;;;;;;;7.38;4.95;;;;;;;11.58;53.13;102972.34;5070369;28;20122;-30
2022/03/07 09:59:03;;;;;;;5.80;3.47;;;;;;;12.00;53.55;102962.38;5067635;28;20040;-31
2022/03/07 10:01:31;;;;;;;5.40;3.63;;;;;;;12.14;51.06;102974.06;5071217;28;20044;-31
2022/03/07 10:04:07;;;;;;;5.88;3.60;;;;;;;12.17;50.38;102969.91;5070226;28;20048;-31
2022/03/07 10:06:35;;;;;;;5.65;3.80;;;;;;;12.36;50.89;102969.34;5071177;28;20067;-30
2022/03/07 10:09:05;;;;;;;4.60;3.33;;;;;;;12.47;49.52;102972.25;5071116;28;20045;-30
2022/03/07 10:11:33;;;;;;;6.50;3.60;;;;;;;12.42;49.51;102970.22;5070357;28;20048;-27
2022/03/07 10:14:04;;;;;;;6.93;3.58;;;;;;;12.40;49.60;102973.28;5070849;28;20041;-27
2022/03/07 10:16:39;;;;;;;6.20;3.95;;;;;;;12.32;45.40;102964.50;5071043;28;20041;-30
2022/03/07 10:19:09;;;;;;;4.78;3.60;;;;;;;12.09;47.21;102957.19;5069938;28;20547;-30
2022/03/07 10:21:37;;;;;;;6.28;3.85;;;;;;;12.11;48.49;102952.19;5070919;28;20048;-33
2022/03/07 10:24:07;;;;;;;5.97;3.78;;;;;;;12.53;46.89;102949.66;5070761;28;20048;-32
2022/03/07 10:26:38;;;;;;;6.28;3.65;;;;;;;12.65;46.88;102946.72;5070260;28;20049;-28
2022/03/07 10:29:07;;;;;;;4.93;3.78;;;;;;;12.65;45.55;102941.13;5069362;28;20493;-33
2022/03/07 10:31:55;;;;;;;6.03;3.65;;;;;;;12.55;45.10;102935.41;5061618;28;20321;-33
2022/03/07 10:34:24;;;;;;;5.38;3.85;;;;;;;12.31;45.02;102929.22;5070714;28;20134;-28
2022/03/07 10:36:52;;;;;;;6.28;3.88;;;;;;;12.17;45.21;102922.31;5070711;28;20071;-31
2022/03/07 10:39:26;;;;;;;6.22;4.50;;;;;;;12.33;45.07;102932.63;5070015;28;20460;-27
2022/03/07 10:41:55;;;;;;;5.57;3.83;;;;;;;12.66;46.12;102928.81;5070932;28;20193;-30
2022/03/07 10:44:30;;;;;;;6.07;4.00;;;;;;;13.05;44.03;102933.13;5070909;28;20041;-31
2022/03/07 10:47:09;;;;;;;6.85;4.30;;;;;;;12.83;40.49;102931.50;5069991;28;20489;-31
2022/03/07 10:49:47;;;;;;;5.70;4.25;;;;;;;12.58;43.09;102926.47;5070775;28;20052;-29
2022/03/07 10:52:15;;;;;;;5.13;3.75;;;;;;;12.23;43.34;102924.06;5070648;28;20127;-31
2022/03/07 10:54:46;;;;;;;5.22;4.07;;;;;;;12.34;44.04;102920.31;5070023;28;20079;-31
2022/03/07 10:57:14;;;;;;;5.93;3.80;;;;;;;12.71;44.21;102924.13;5072515;28;20147;-30
2022/03/07 10:59:42;;;;;;;3.97;3.17;;;;;;;13.13;43.15;102923.41;5074629;28;20045;-29
2022/03/07 11:02:14;;;;;;;5.57;3.17;;;;;;;13.05;42.15;102916.31;5073624;28;20055;-30
2022/03/07 11:04:43;;;;;;;4.63;3.25;;;;;;;13.31;42.90;102914.63;5063396;28;20052;-33
2022/03/07 11:07:12;;;;;;;4.97;3.45;;;;;;;13.84;42.54;102903.50;5073467;28;20466;-31
2022/03/07 11:09:41;;;;;;;6.05;3.95;;;;;;;14.14;41.82;102898.91;5074120;28;20152;-31
2022/03/07 11:12:14;;;;;;;4.22;3.30;;;;;;;13.97;40.46;102898.28;5074208;28;20048;-31
2022/03/07 11:14:43;;;;;;;5.57;3.42;;;;;;;13.59;40.95;102896.59;5073226;28;20044;-32
2022/03/07 11:17:14;;;;;;;6.68;3.08;;;;;;;13.58;41.79;102899.72;5073992;28;20194;-33
2022/03/07 11:19:42;;;;;;;6.05;3.63;;;;;;;13.68;41.61;102896.97;5074013;28;20044;-31
2022/03/07 11:22:12;;;;;;;5.82;4.13;;;;;;;13.43;40.93;102892.00;5073458;28;20055;-34
2022/03/07 11:24:40;;;;;;;5.40;3.92;;;;;;;12.88;41.40;102887.56;5073512;28;20131;-30
2022/03/07 11:27:08;;;;;;;5.03;3.30;;;;;;;12.75;42.05;102896.41;5073790;28;20106;-28
2022/03/07 11:29:40;;;;;;;3.80;2.90;;;;;;;12.60;42.16;102887.81;5072723;28;20048;-34